| time (UTC) | temp F | wind direction | speed knots | gust knots | rain 1hr in | rain 24hr in | rain mn in | humidity % | barometer mb |
| 20260506182427 | 69 | 51 | 0.9 | 2.6 | 0.00 | 0.00 | 0.00 | 74 | 1023.0 |
| 20260506181924 | 69 | 289 | 3.5 | 4.3 | 0.00 | 0.00 | 0.00 | 73 | 1023.1 |
| 20260506181422 | 69 | 312 | 2.6 | 2.6 | 0.00 | 0.00 | 0.00 | 74 | 1022.9 |
| 20260506180918 | 70 | 121 | 0.9 | 1.7 | 0.00 | 0.00 | 0.00 | 73 | 1022.9 |
| 20260506180414 | 69 | 179 | 0.0 | 0.0 | 0.00 | 0.00 | 0.00 | 76 | 1023.0 |
| 20260506175912 | 71 | 79 | 3.5 | 4.3 | 0.00 | 0.00 | 0.00 | 73 | 1023.2 |
| 20260506175408 | 69 | 177 | 0.0 | 0.0 | 0.00 | 0.00 | 0.00 | 76 | 1023.0 |
| 20260506174905 | 69 | 173 | 0.0 | 0.0 | 0.00 | 0.00 | 0.00 | 76 | 1023.2 |
| 20260506174403 | 69 | 181 | 0.0 | 0.9 | 0.00 | 0.00 | 0.00 | 76 | 1023.2 |
| 20260506173900 | 68 | 203 | 0.9 | 1.7 | 0.00 | 0.00 | 0.00 | 78 | 1023.0 |
| 20260506173356 | 68 | 185 | 2.6 | 2.6 | 0.00 | 0.00 | 0.00 | 77 | 1023.0 |
| 20260506172854 | 68 | 198 | 0.0 | 0.0 | 0.00 | 0.00 | 0.00 | 77 | 1023.1 |
| 20260506172350 | 66 | 143 | 0.9 | 1.7 | 0.00 | 0.00 | 0.00 | 78 | 1023.1 |
| 20260506171848 | 66 | 237 | 0.9 | 1.7 | 0.00 | 0.00 | 0.00 | 79 | 1023.2 |
| 20260506171345 | 67 | 210 | 0.9 | 0.9 | 0.00 | 0.00 | 0.00 | 78 | 1023.2 |
| 20260506170842 | 68 | 257 | 1.7 | 1.7 | 0.00 | 0.00 | 0.00 | 76 | 1023.0 |
| 20260506170338 | 66 | 176 | 0.9 | 0.9 | 0.00 | 0.00 | 0.00 | 78 | 1023.2 |
| 20260506165838 | 66 | 166 | 0.9 | 0.9 | 0.00 | 0.00 | 0.00 | 78 | 1023.2 |
| 20260506165335 | 65 | 192 | 0.0 | 0.0 | 0.00 | 0.00 | 0.00 | 79 | 1023.0 |
| 20260506164831 | 65 | 179 | 0.0 | 0.0 | 0.00 | 0.00 | 0.00 | 79 | 1023.1 |
| 20260506164328 | 65 | 215 | 0.0 | 0.9 | 0.00 | 0.00 | 0.00 | 79 | 1023.0 |
| 20260506163825 | 65 | 195 | 0.9 | 0.9 | 0.00 | 0.00 | 0.00 | 79 | 1023.0 |
| 20260506163320 | 64 | 158 | 0.0 | 0.0 | 0.00 | 0.00 | 0.00 | 81 | 1023.0 |
| 20260506162816 | 63 | 192 | 0.0 | 0.0 | 0.00 | 0.00 | 0.00 | 81 | 1023.1 |
| 20260506162314 | 63 | 192 | 0.0 | 0.0 | 0.00 | 0.00 | 0.00 | 81 | 1023.2 |
| 20260506161811 | 63 | 173 | 0.9 | 0.9 | 0.00 | 0.00 | 0.00 | 81 | 1022.9 |
| 20260506161308 | 62 | 167 | 0.0 | 0.0 | 0.00 | 0.00 | 0.00 | 82 | 1023.0 |
| 20260506160806 | 62 | 215 | 0.0 | 0.0 | 0.00 | 0.00 | 0.00 | 82 | 1022.9 |
| 20260506160302 | 62 | 150 | 0.9 | 0.9 | 0.00 | 0.00 | 0.00 | 83 | 1023.0 |
| 20260506155801 | 62 | 191 | 1.7 | 1.7 | 0.00 | 0.00 | 0.00 | 83 | 1023.2 |
| 20260506155257 | 61 | 179 | 0.0 | 0.9 | 0.00 | 0.00 | 0.00 | 83 | 1023.3 |
| 20260506153410 | 61 | 181 | 0.0 | 0.9 | 0.00 | 0.00 | 0.00 | 84 | 1023.0 |
| 20260506152907 | 60 | 189 | 0.0 | 0.0 | 0.00 | 0.00 | 0.00 | 85 | 1023.2 |
| 20260506152404 | 60 | 189 | 0.9 | 1.7 | 0.00 | 0.00 | 0.00 | 85 | 1023.0 |
| 20260506151903 | 60 | 160 | 2.6 | 2.6 | 0.00 | 0.00 | 0.00 | 85 | 1023.0 |
| 20260506151359 | 61 | 170 | 0.9 | 0.9 | 0.00 | 0.00 | 0.00 | 84 | 1022.9 |
| 20260506150857 | 61 | 175 | 0.0 | 0.0 | 0.00 | 0.00 | 0.00 | 84 | 1023.0 |
| 20260506150353 | 61 | 210 | 0.9 | 0.9 | 0.00 | 0.00 | 0.00 | 84 | 1022.8 |
| 20260506145850 | 60 | 207 | 0.9 | 0.9 | 0.00 | 0.00 | 0.00 | 84 | 1022.8 |
| 20260506145346 | 60 | 220 | 0.9 | 0.9 | 0.00 | 0.00 | 0.00 | 84 | 1022.8 |
| 20260506144844 | 60 | 214 | 1.7 | 1.7 | 0.00 | 0.00 | 0.00 | 85 | 1022.8 |
| 20260506144340 | 60 | 197 | 0.0 | 0.9 | 0.00 | 0.00 | 0.00 | 85 | 1022.7 |
| 20260506143839 | 60 | 192 | 0.0 | 0.0 | 0.00 | 0.00 | 0.00 | 85 | 1022.9 |
| 20260506143335 | 60 | 196 | 0.9 | 0.9 | 0.00 | 0.00 | 0.00 | 85 | 1022.5 |
| 20260506142834 | 59 | 205 | 0.0 | 0.0 | 0.00 | 0.00 | 0.00 | 87 | 1022.8 |
| 20260506142331 | 59 | 206 | 0.0 | 0.0 | 0.00 | 0.00 | 0.00 | 87 | 1022.7 |
| 20260506141829 | 59 | 190 | 0.9 | 0.9 | 0.00 | 0.00 | 0.00 | 87 | 1022.6 |
| 20260506141327 | 59 | 202 | 1.7 | 1.7 | 0.00 | 0.00 | 0.00 | 87 | 1022.5 |
| 20260506140825 | 59 | 189 | 0.0 | 0.0 | 0.00 | 0.00 | 0.00 | 87 | 1022.5 |
| 20260506140321 | 59 | 189 | 0.0 | 0.0 | 0.00 | 0.00 | 0.00 | 87 | 1022.6 |
| 20260506135818 | 59 | 186 | 0.0 | 0.0 | 0.00 | 0.00 | 0.00 | 87 | 1022.4 |
| 20260506135315 | 58 | 200 | 0.0 | 0.0 | 0.00 | 0.00 | 0.00 | 87 | 1022.4 |
| 20260506134811 | 58 | 192 | 0.0 | 0.0 | 0.00 | 0.00 | 0.00 | 87 | 1022.2 |
| 20260506134308 | 58 | 201 | 0.0 | 0.0 | 0.00 | 0.00 | 0.00 | 88 | 1022.2 |
| 20260506133805 | 58 | 191 | 0.0 | 0.0 | 0.00 | 0.00 | 0.00 | 88 | 1022.1 |
| 20260506133302 | 58 | 200 | 0.0 | 0.0 | 0.00 | 0.00 | 0.00 | 88 | 1022.2 |
| 20260506132758 | 58 | 182 | 0.0 | 0.0 | 0.00 | 0.00 | 0.00 | 88 | 1022.2 |
| 20260506132256 | 58 | 183 | 0.0 | 0.0 | 0.00 | 0.00 | 0.00 | 88 | 1022.2 |
| 20260506131754 | 58 | 183 | 0.0 | 0.0 | 0.00 | 0.00 | 0.00 | 88 | 1022.1 |
| 20260506131249 | 58 | 183 | 0.0 | 0.0 | 0.00 | 0.00 | 0.00 | 88 | 1022.1 |
| 20260506130746 | 58 | 183 | 0.0 | 0.0 | 0.00 | 0.00 | 0.00 | 88 | 1022.1 |
| 20260506130243 | 58 | 180 | 0.0 | 0.0 | 0.00 | 0.00 | 0.00 | 87 | 1021.9 |
| 20260506125741 | 58 | 183 | 0.0 | 0.0 | 0.00 | 0.00 | 0.00 | 87 | 1021.9 |
| 20260506125239 | 58 | 180 | 0.0 | 0.0 | 0.00 | 0.00 | 0.00 | 87 | 1021.8 |
| 20260506124737 | 58 | 182 | 0.0 | 0.0 | 0.00 | 0.00 | 0.00 | 87 | 1022.0 |
| 20260506124234 | 58 | 186 | 0.0 | 0.0 | 0.00 | 0.00 | 0.00 | 87 | 1021.7 |
| 20260506123732 | 58 | 206 | 0.9 | 0.9 | 0.00 | 0.00 | 0.00 | 86 | 1021.7 |
| 20260506123230 | 58 | 192 | 0.0 | 0.0 | 0.00 | 0.00 | 0.00 | 86 | 1022.0 |
| 20260506122727 | 58 | 191 | 0.0 | 0.0 | 0.00 | 0.00 | 0.00 | 87 | 1021.6 |
| 20260506122224 | 58 | 187 | 0.0 | 0.0 | 0.00 | 0.00 | 0.00 | 87 | 1021.6 |
| 20260506121722 | 58 | 184 | 0.9 | 0.9 | 0.00 | 0.00 | 0.00 | 87 | 1021.9 |
| 20260506121218 | 58 | 191 | 0.0 | 0.0 | 0.00 | 0.00 | 0.00 | 87 | 1021.7 |
| 20260506120716 | 58 | 185 | 0.0 | 0.0 | 0.00 | 0.00 | 0.00 | 87 | 1021.5 |
| 20260506120213 | 58 | 185 | 0.0 | 0.0 | 0.00 | 0.00 | 0.00 | 86 | 1021.8 |
| 20260506115711 | 58 | 191 | 0.0 | 0.0 | 0.00 | 0.00 | 0.00 | 86 | 1021.7 |
| 20260506115209 | 58 | 197 | 0.0 | 0.0 | 0.00 | 0.00 | 0.00 | 86 | 1021.5 |
| 20260506114707 | 58 | 189 | 0.0 | 0.0 | 0.00 | 0.00 | 0.00 | 86 | 1021.4 |
| 20260506114204 | 58 | 186 | 0.0 | 0.0 | 0.00 | 0.00 | 0.00 | 86 | 1021.6 |
| 20260506113703 | 58 | 191 | 0.0 | 0.0 | 0.00 | 0.00 | 0.00 | 86 | 1021.6 |
| 20260506113200 | 58 | 184 | 0.0 | 0.0 | 0.00 | 0.00 | 0.00 | 86 | 1021.5 |
| 20260506112655 | 58 | 194 | 0.0 | 0.0 | 0.00 | 0.00 | 0.00 | 86 | 1021.4 |
| 20260506112154 | 58 | 180 | 0.0 | 0.0 | 0.00 | 0.00 | 0.00 | 86 | 1021.3 |
| 20260506111651 | 58 | 186 | 0.0 | 0.0 | 0.00 | 0.00 | 0.00 | 85 | 1021.2 |
| 20260506111149 | 58 | 184 | 0.0 | 0.0 | 0.00 | 0.00 | 0.00 | 85 | 1021.3 |
| 20260506110646 | 58 | 189 | 0.0 | 0.0 | 0.00 | 0.00 | 0.00 | 85 | 1021.2 |
| 20260506110143 | 59 | 186 | 0.0 | 0.0 | 0.00 | 0.00 | 0.00 | 85 | 1021.3 |
| 20260506105640 | 59 | 184 | 0.0 | 0.0 | 0.00 | 0.00 | 0.00 | 84 | 1021.2 |
| 20260506105137 | 59 | 186 | 0.0 | 0.0 | 0.00 | 0.00 | 0.00 | 84 | 1021.0 |
| 20260506104634 | 59 | 180 | 0.0 | 0.9 | 0.00 | 0.00 | 0.00 | 84 | 1021.1 |
| 20260506104132 | 59 | 185 | 0.9 | 0.9 | 0.00 | 0.00 | 0.00 | 84 | 1021.0 |
| 20260506103629 | 59 | 186 | 0.9 | 0.9 | 0.00 | 0.00 | 0.00 | 84 | 1021.1 |
| 20260506103126 | 59 | 197 | 0.0 | 0.0 | 0.00 | 0.00 | 0.00 | 84 | 1021.1 |
| 20260506102624 | 59 | 182 | 0.0 | 0.9 | 0.00 | 0.00 | 0.00 | 83 | 1020.9 |
| 20260506102121 | 59 | 184 | 0.9 | 0.9 | 0.00 | 0.00 | 0.00 | 83 | 1020.8 |
| 20260506101617 | 59 | 185 | 0.0 | 0.0 | 0.00 | 0.00 | 0.00 | 83 | 1020.9 |
| 20260506101114 | 59 | 186 | 0.9 | 0.9 | 0.00 | 0.00 | 0.00 | 82 | 1021.1 |
| 20260506100613 | 59 | 191 | 0.9 | 1.7 | 0.00 | 0.00 | 0.00 | 82 | 1020.8 |
| 20260506100110 | 59 | 193 | 1.7 | 1.7 | 0.00 | 0.00 | 0.00 | 82 | 1021.0 |
| 20260506095609 | 59 | 172 | 0.9 | 0.9 | 0.00 | 0.00 | 0.00 | 82 | 1020.7 |
| 20260506095105 | 59 | 200 | 1.7 | 1.7 | 0.00 | 0.00 | 0.00 | 82 | 1020.8 |
| 20260506094603 | 59 | 194 | 1.7 | 2.6 | 0.00 | 0.00 | 0.00 | 82 | 1021.0 |
| 20260506094101 | 59 | 210 | 1.7 | 1.7 | 0.00 | 0.00 | 0.00 | 82 | 1020.8 |
| 20260506093559 | 59 | 201 | 1.7 | 1.7 | 0.00 | 0.00 | 0.00 | 82 | 1020.7 |
| 20260506093056 | 60 | 179 | 0.9 | 0.9 | 0.00 | 0.00 | 0.00 | 81 | 1020.9 |
| 20260506092554 | 60 | 199 | 0.9 | 0.9 | 0.00 | 0.00 | 0.00 | 81 | 1020.8 |
| 20260506092050 | 60 | 201 | 1.7 | 2.6 | 0.00 | 0.00 | 0.00 | 81 | 1020.9 |
| 20260506091549 | 60 | 211 | 0.9 | 0.9 | 0.00 | 0.00 | 0.00 | 81 | 1020.9 |
| 20260506091046 | 60 | 186 | 2.6 | 4.3 | 0.00 | 0.00 | 0.00 | 81 | 1020.9 |
| 20260506090543 | 60 | 220 | 2.6 | 2.6 | 0.00 | 0.00 | 0.00 | 81 | 1020.9 |
| 20260506090039 | 60 | 207 | 0.9 | 0.9 | 0.00 | 0.00 | 0.00 | 81 | 1020.8 |
| 20260506085536 | 60 | 205 | 1.7 | 1.7 | 0.00 | 0.00 | 0.00 | 82 | 1021.0 |
| 20260506085033 | 60 | 188 | 0.0 | 0.0 | 0.00 | 0.00 | 0.00 | 82 | 1020.8 |
| 20260506084530 | 60 | 186 | 0.9 | 0.9 | 0.00 | 0.00 | 0.00 | 82 | 1021.0 |
| 20260506084026 | 60 | 196 | 1.7 | 1.7 | 0.00 | 0.00 | 0.00 | 82 | 1020.9 |
| 20260506083523 | 60 | 203 | 0.9 | 0.9 | 0.00 | 0.00 | 0.00 | 82 | 1020.7 |
| 20260506083021 | 60 | 203 | 1.7 | 1.7 | 0.00 | 0.00 | 0.00 | 82 | 1020.8 |
| 20260506082517 | 60 | 196 | 0.9 | 0.9 | 0.00 | 0.00 | 0.00 | 82 | 1020.9 |
| 20260506082013 | 59 | 236 | 2.6 | 2.6 | 0.00 | 0.00 | 0.00 | 82 | 1020.7 |
| 20260506081512 | 59 | 209 | 1.7 | 1.7 | 0.00 | 0.00 | 0.00 | 82 | 1020.9 |
| 20260506081009 | 59 | 193 | 1.7 | 2.6 | 0.00 | 0.00 | 0.00 | 83 | 1021.0 |
| 20260506080506 | 59 | 182 | 0.9 | 0.9 | 0.00 | 0.00 | 0.00 | 83 | 1020.8 |
| 20260506073449 | 60 | 174 | 2.6 | 2.6 | 0.00 | 0.00 | 0.00 | 82 | 1020.6 |
| 20260506072946 | 60 | 196 | 0.9 | 1.7 | 0.00 | 0.00 | 0.00 | 82 | 1020.6 |
| 20260506072444 | 60 | 195 | 2.6 | 2.6 | 0.00 | 0.00 | 0.00 | 82 | 1020.4 |
| 20260506071942 | 60 | 203 | 1.7 | 1.7 | 0.00 | 0.00 | 0.00 | 82 | 1020.4 |
| 20260506071439 | 60 | 222 | 3.5 | 4.3 | 0.00 | 0.00 | 0.00 | 82 | 1020.3 |
| 20260506070936 | 60 | 209 | 3.5 | 4.3 | 0.00 | 0.00 | 0.00 | 82 | 1020.2 |
| 20260506070433 | 60 | 213 | 3.5 | 4.3 | 0.00 | 0.00 | 0.00 | 82 | 1020.3 |
| 20260506062410 | 60 | 184 | 2.6 | 2.6 | 0.00 | 0.03 | 0.03 | 81 | 1020.0 |
| 20260506061906 | 60 | 185 | 2.6 | 4.3 | 0.00 | 0.03 | 0.03 | 81 | 1019.9 |
| 20260506061403 | 60 | 204 | 4.3 | 5.2 | 0.00 | 0.03 | 0.03 | 81 | 1019.9 |
| 20260506060901 | 60 | 193 | 1.7 | 1.7 | 0.00 | 0.03 | 0.03 | 81 | 1020.0 |
| 20260506060359 | 60 | 216 | 3.5 | 5.2 | 0.00 | 0.03 | 0.03 | 81 | 1019.6 |
| 20260506051331 | 60 | 204 | 4.3 | 5.2 | 0.00 | 0.03 | 0.03 | 82 | 1019.4 |
| 20260506050828 | 60 | 209 | 3.5 | 5.2 | 0.00 | 0.03 | 0.03 | 82 | 1019.4 |
| 20260506050325 | 60 | 220 | 3.5 | 4.3 | 0.00 | 0.03 | 0.03 | 82 | 1019.4 |
| 20260506044816 | 60 | 238 | 6.1 | 7.0 | 0.00 | 0.03 | 0.03 | 82 | 1019.1 |
| 20260506044314 | 60 | 232 | 1.7 | 2.6 | 0.00 | 0.03 | 0.03 | 82 | 1018.9 |
| 20260506043810 | 60 | 215 | 5.2 | 7.0 | 0.00 | 0.03 | 0.03 | 82 | 1018.9 |
| 20260506043308 | 60 | 196 | 4.3 | 6.1 | 0.00 | 0.03 | 0.03 | 82 | 1019.1 |
| 20260506042806 | 60 | 177 | 4.3 | 6.1 | 0.00 | 0.03 | 0.03 | 82 | 1018.9 |
| 20260506042305 | 60 | 210 | 1.7 | 1.7 | 0.00 | 0.03 | 0.03 | 82 | 1018.8 |
| 20260506041803 | 60 | 228 | 3.5 | 4.3 | 0.00 | 0.03 | 0.03 | 82 | 1019.1 |
| 20260506041300 | 60 | 211 | 4.3 | 6.1 | 0.00 | 0.03 | 0.03 | 81 | 1018.8 |
| 20260506040757 | 60 | 205 | 4.3 | 6.1 | 0.00 | 0.03 | 0.03 | 81 | 1018.9 |
| 20260506040254 | 60 | 262 | 2.6 | 4.3 | 0.00 | 0.03 | 0.03 | 81 | 1018.8 |
| 20260506035750 | 60 | 218 | 3.5 | 4.3 | 0.00 | 0.03 | 0.03 | 81 | 1018.7 |
| 20260506035247 | 60 | 208 | 2.6 | 4.3 | 0.00 | 0.03 | 0.03 | 81 | 1018.7 |
| 20260506034745 | 61 | 188 | 4.3 | 6.1 | 0.00 | 0.03 | 0.03 | 81 | 1018.8 |
| 20260506034242 | 61 | 274 | 3.5 | 5.2 | 0.00 | 0.03 | 0.03 | 81 | 1018.7 |
| 20260506033739 | 61 | 214 | 4.3 | 5.2 | 0.00 | 0.03 | 0.03 | 81 | 1018.6 |
| 20260506033236 | 61 | 225 | 4.3 | 5.2 | 0.00 | 0.03 | 0.03 | 81 | 1018.7 |
| 20260506032732 | 61 | 235 | 5.2 | 5.2 | 0.00 | 0.03 | 0.03 | 81 | 1018.3 |
| 20260506032230 | 61 | 215 | 2.6 | 4.3 | 0.00 | 0.03 | 0.03 | 81 | 1018.3 |
| 20260506031726 | 61 | 200 | 3.5 | 6.1 | 0.00 | 0.03 | 0.03 | 80 | 1018.2 |
| 20260506031224 | 61 | 230 | 3.5 | 4.3 | 0.00 | 0.03 | 0.03 | 80 | 1018.2 |
| 20260506030722 | 61 | 190 | 4.3 | 6.1 | 0.00 | 0.03 | 0.03 | 80 | 1018.1 |
| 20260506030219 | 61 | 216 | 4.3 | 7.0 | 0.00 | 0.03 | 0.03 | 80 | 1018.1 |
| 20260506025716 | 62 | 208 | 6.1 | 7.8 | 0.00 | 0.03 | 0.03 | 80 | 1018.0 |
| 20260506025212 | 62 | 216 | 6.1 | 7.8 | 0.00 | 0.03 | 0.03 | 80 | 1017.8 |
| 20260506024709 | 62 | 238 | 5.2 | 7.8 | 0.00 | 0.03 | 0.03 | 80 | 1017.9 |
| 20260506024205 | 62 | 184 | 7.8 | 8.7 | 0.00 | 0.03 | 0.03 | 80 | 1018.0 |
| 20260506023702 | 62 | 213 | 7.8 | 9.6 | 0.00 | 0.03 | 0.03 | 80 | 1018.0 |
| 20260506023159 | 62 | 214 | 5.2 | 6.1 | 0.00 | 0.03 | 0.03 | 81 | 1017.9 |
| 20260506022656 | 62 | 231 | 4.3 | 5.2 | 0.00 | 0.03 | 0.03 | 81 | 1017.9 |
| 20260506022154 | 62 | 187 | 3.5 | 5.2 | 0.00 | 0.03 | 0.03 | 81 | 1017.7 |
| 20260506021652 | 62 | 208 | 4.3 | 4.3 | 0.00 | 0.03 | 0.03 | 81 | 1017.7 |
| 20260506021148 | 62 | 208 | 3.5 | 5.2 | 0.00 | 0.03 | 0.03 | 80 | 1017.6 |
| 20260506020645 | 62 | 197 | 6.1 | 7.0 | 0.00 | 0.03 | 0.03 | 80 | 1017.7 |
| 20260506020143 | 63 | 223 | 7.8 | 11.3 | 0.00 | 0.03 | 0.03 | 80 | 1017.8 |
| 20260506015640 | 63 | 263 | 3.5 | 5.2 | 0.00 | 0.03 | 0.03 | 79 | 1017.8 |
| 20260506015137 | 63 | 267 | 3.5 | 5.2 | 0.00 | 0.03 | 0.03 | 79 | 1017.8 |
| 20260506014635 | 63 | 212 | 4.3 | 7.0 | 0.00 | 0.03 | 0.03 | 78 | 1017.7 |
| 20260506014130 | 63 | 203 | 7.0 | 8.7 | 0.00 | 0.03 | 0.03 | 79 | 1017.9 |
| 20260506013629 | 64 | 212 | 5.2 | 7.0 | 0.00 | 0.03 | 0.03 | 78 | 1017.9 |
| 20260506013125 | 64 | 232 | 5.2 | 7.0 | 0.00 | 0.03 | 0.03 | 78 | 1017.7 |
| 20260506012622 | 64 | 214 | 7.0 | 7.8 | 0.00 | 0.03 | 0.03 | 78 | 1017.7 |
| 20260506012118 | 64 | 235 | 3.5 | 4.3 | 0.00 | 0.03 | 0.03 | 77 | 1017.7 |
| 20260506011616 | 64 | 196 | 2.6 | 4.3 | 0.00 | 0.03 | 0.03 | 78 | 1017.7 |
| 20260506011112 | 64 | 183 | 6.1 | 7.8 | 0.00 | 0.03 | 0.03 | 77 | 1017.7 |
| 20260506010606 | 64 | 158 | 5.2 | 11.3 | 0.00 | 0.03 | 0.03 | 77 | 1017.2 |
| 20260506005559 | 65 | 222 | 4.3 | 7.8 | 0.00 | 0.03 | 0.03 | 77 | 1017.3 |
| 20260506005055 | 65 | 222 | 5.2 | 7.8 | 0.00 | 0.03 | 0.03 | 77 | 1017.5 |
| 20260506004552 | 65 | 229 | 7.8 | 9.6 | 0.00 | 0.03 | 0.03 | 76 | 1017.3 |
| 20260506004049 | 65 | 218 | 4.3 | 5.2 | 0.00 | 0.03 | 0.03 | 76 | 1017.4 |
| 20260506003545 | 66 | 210 | 4.3 | 7.0 | 0.00 | 0.03 | 0.03 | 76 | 1017.4 |
| 20260506003042 | 66 | 179 | 5.2 | 6.1 | 0.00 | 0.03 | 0.03 | 75 | 1017.6 |
| 20260506002538 | 65 | 232 | 3.5 | 4.3 | 0.00 | 0.03 | 0.03 | 76 | 1017.4 |
| 20260506002034 | 65 | 202 | 7.8 | 8.7 | 0.00 | 0.03 | 0.03 | 76 | 1017.4 |
| 20260506001530 | 65 | 229 | 6.1 | 7.8 | 0.00 | 0.03 | 0.03 | 76 | 1017.5 |
| 20260506001028 | 66 | 198 | 2.6 | 4.3 | 0.00 | 0.03 | 0.03 | 75 | 1017.3 |
| 20260506000525 | 66 | 235 | 3.5 | 5.2 | 0.00 | 0.03 | 0.03 | 75 | 1017.3 |
| 20260506000023 | 65 | 227 | 6.1 | 7.0 | 0.00 | 0.03 | 0.03 | 75 | 1017.2 |
| 20260505235520 | 66 | 266 | 5.2 | 7.8 | 0.00 | 0.03 | 0.03 | 74 | 1017.2 |
| 20260505235017 | 65 | 212 | 3.5 | 5.2 | 0.00 | 0.03 | 0.03 | 76 | 1017.3 |
| 20260505234514 | 65 | 214 | 6.1 | 7.8 | 0.00 | 0.03 | 0.03 | 76 | 1017.5 |
| 20260505234011 | 65 | 210 | 4.3 | 5.2 | 0.00 | 0.03 | 0.03 | 76 | 1017.5 |
| 20260505233508 | 66 | 233 | 2.6 | 2.6 | 0.00 | 0.03 | 0.03 | 76 | 1017.3 |
| 20260505233005 | 66 | 215 | 2.6 | 4.3 | 0.00 | 0.03 | 0.03 | 76 | 1017.4 |
| 20260505232503 | 65 | 205 | 0.9 | 2.6 | 0.00 | 0.03 | 0.03 | 76 | 1017.5 |
| 20260505232001 | 65 | 215 | 2.6 | 2.6 | 0.00 | 0.03 | 0.03 | 77 | 1017.3 |
| 20260505231457 | 64 | 220 | 1.7 | 2.6 | 0.00 | 0.03 | 0.03 | 78 | 1017.5 |
| 20260505230956 | 64 | 223 | 6.1 | 7.0 | 0.00 | 0.03 | 0.03 | 78 | 1017.6 |
| 20260505230453 | 64 | 178 | 3.5 | 4.3 | 0.00 | 0.03 | 0.03 | 78 | 1017.7 |
| 20260505225949 | 64 | 222 | 7.0 | 7.8 | 0.00 | 0.03 | 0.03 | 78 | 1017.4 |
| 20260505225446 | 64 | 206 | 2.6 | 5.2 | 0.00 | 0.03 | 0.03 | 78 | 1017.5 |
| 20260505224942 | 64 | 202 | 4.3 | 6.1 | 0.00 | 0.03 | 0.03 | 79 | 1017.6 |
| 20260505224439 | 64 | 201 | 7.0 | 9.6 | 0.00 | 0.03 | 0.03 | 78 | 1017.5 |
| 20260505223937 | 64 | 214 | 3.5 | 4.3 | 0.00 | 0.03 | 0.03 | 78 | 1017.6 |
| 20260505223433 | 64 | 195 | 4.3 | 5.2 | 0.00 | 0.03 | 0.03 | 78 | 1017.6 |
| 20260505222930 | 64 | 209 | 3.5 | 4.3 | 0.00 | 0.03 | 0.03 | 78 | 1017.7 |
| 20260505222426 | 64 | 215 | 1.7 | 4.3 | 0.00 | 0.03 | 0.03 | 78 | 1017.7 |
| 20260505221922 | 64 | 163 | 0.0 | 0.0 | 0.00 | 0.03 | 0.03 | 78 | 1017.7 |
| 20260505221420 | 65 | 162 | 0.9 | 1.7 | 0.00 | 0.03 | 0.03 | 78 | 1017.8 |
| 20260505220917 | 65 | 57 | 0.9 | 1.7 | 0.00 | 0.03 | 0.03 | 77 | 1017.7 |
| 20260505220413 | 65 | 79 | 2.6 | 2.6 | 0.00 | 0.03 | 0.03 | 77 | 1017.6 |
| 20260505215911 | 65 | 137 | 0.9 | 1.7 | 0.00 | 0.03 | 0.03 | 78 | 1017.8 |
| 20260505215409 | 66 | 178 | 1.7 | 1.7 | 0.00 | 0.03 | 0.03 | 76 | 1017.6 |
| 20260505214907 | 65 | 216 | 1.7 | 2.6 | 0.00 | 0.03 | 0.03 | 77 | 1017.9 |
| 20260505214404 | 65 | 232 | 0.9 | 2.6 | 0.00 | 0.03 | 0.03 | 77 | 1017.8 |
| 20260505213901 | 65 | 140 | 1.7 | 4.3 | 0.00 | 0.03 | 0.03 | 77 | 1017.9 |
| 20260505213359 | 65 | 149 | 0.9 | 0.9 | 0.00 | 0.03 | 0.03 | 79 | 1017.7 |
| 20260505212855 | 64 | 183 | 0.9 | 0.9 | 0.00 | 0.03 | 0.03 | 78 | 1018.0 |
| 20260505212352 | 65 | 173 | 1.7 | 1.7 | 0.00 | 0.03 | 0.03 | 78 | 1017.8 |
| 20260505211848 | 64 | 172 | 1.7 | 2.6 | 0.00 | 0.03 | 0.03 | 79 | 1017.8 |
| 20260505211346 | 64 | 132 | 1.7 | 2.6 | 0.00 | 0.03 | 0.03 | 79 | 1018.0 |
| 20260505210842 | 64 | 182 | 0.0 | 0.9 | 0.00 | 0.03 | 0.03 | 79 | 1018.1 |
| 20260505210339 | 64 | 173 | 0.0 | 0.9 | 0.00 | 0.03 | 0.03 | 78 | 1018.1 |
| 20260505205836 | 65 | 146 | 0.9 | 0.9 | 0.00 | 0.03 | 0.03 | 78 | 1017.8 |
| 20260505205334 | 65 | 158 | 0.0 | 0.0 | 0.00 | 0.03 | 0.03 | 77 | 1018.1 |
| 20260505204831 | 65 | 232 | 0.0 | 0.0 | 0.00 | 0.03 | 0.03 | 77 | 1018.2 |
| 20260505204329 | 66 | 193 | 0.0 | 0.9 | 0.00 | 0.03 | 0.03 | 76 | 1018.1 |
| 20260505203826 | 67 | 192 | 0.9 | 0.9 | 0.00 | 0.03 | 0.03 | 75 | 1018.0 |
| 20260505203322 | 66 | 191 | 0.0 | 0.0 | 0.00 | 0.03 | 0.03 | 76 | 1018.1 |
| 20260505202819 | 66 | 282 | 0.9 | 1.7 | 0.00 | 0.03 | 0.03 | 74 | 1018.1 |
| 20260505202315 | 64 | 190 | 0.9 | 1.7 | 0.00 | 0.03 | 0.03 | 79 | 1018.2 |
| 20260505201811 | 66 | 159 | 1.7 | 2.6 | 0.00 | 0.03 | 0.03 | 78 | 1018.1 |
| 20260505201309 | 64 | 186 | 0.0 | 0.0 | 0.00 | 0.03 | 0.03 | 80 | 1018.3 |
| 20260505200807 | 64 | 130 | 0.9 | 1.7 | 0.00 | 0.03 | 0.03 | 81 | 1018.3 |
| 20260505200304 | 64 | 96 | 2.6 | 2.6 | 0.00 | 0.03 | 0.03 | 79 | 1018.3 |
| 20260505195759 | 63 | 155 | 0.9 | 1.7 | 0.00 | 0.03 | 0.03 | 82 | 1018.2 |
| 20260505195257 | 62 | 107 | 0.9 | 0.9 | 0.00 | 0.03 | 0.03 | 83 | 1018.3 |
| 20260505194754 | 63 | 4 | 0.9 | 1.7 | 0.00 | 0.03 | 0.03 | 83 | 1018.4 |
| 20260505194251 | 62 | 180 | 0.0 | 0.0 | 0.00 | 0.03 | 0.03 | 84 | 1018.5 |
| 20260505193746 | 62 | 190 | 0.0 | 0.9 | 0.00 | 0.03 | 0.03 | 84 | 1018.4 |
| 20260505193244 | 62 | 75 | 0.0 | 0.9 | 0.00 | 0.03 | 0.03 | 84 | 1018.5 |
| 20260505192742 | 62 | 164 | 0.0 | 0.0 | 0.00 | 0.03 | 0.03 | 86 | 1018.6 |
| 20260505192240 | 61 | 199 | 0.0 | 0.0 | 0.00 | 0.03 | 0.03 | 86 | 1018.3 |
| 20260505191737 | 60 | 180 | 0.0 | 0.0 | 0.00 | 0.03 | 0.03 | 87 | 1018.3 |
| 20260505191236 | 60 | 31 | 1.7 | 1.7 | 0.00 | 0.03 | 0.03 | 88 | 1018.4 |
| 20260505190732 | 60 | 310 | 0.0 | 0.0 | 0.00 | 0.03 | 0.03 | 89 | 1018.6 |
| 20260505190232 | 60 | 198 | 0.9 | 0.9 | 0.00 | 0.03 | 0.03 | 89 | 1018.4 |
| 20260505185728 | 60 | 19 | 5.2 | 6.1 | 0.00 | 0.03 | 0.03 | 87 | 1018.5 |
| 20260505185225 | 60 | 28 | 0.9 | 1.7 | 0.00 | 0.03 | 0.03 | 87 | 1018.2 |
| 20260505184721 | 60 | 21 | 0.9 | 1.7 | 0.00 | 0.03 | 0.03 | 87 | 1018.3 |
| 20260505184218 | 61 | 49 | 0.0 | 0.9 | 0.00 | 0.03 | 0.03 | 86 | 1018.2 |
| 20260505183715 | 61 | 161 | 0.0 | 0.9 | 0.00 | 0.03 | 0.03 | 86 | 1018.1 |
| 20260505183213 | 60 | 302 | 2.6 | 2.6 | 0.00 | 0.03 | 0.03 | 86 | 1018.2 |